Laughlin A F B, Texas
Current Conditions -  °F | °C
As of 3:58 AM on Thursday 27 Nov 2014 (Local Time) from KDLF Reporting Station
Clear Clear  
Wind Chill: 40°   Ceiling: Unl
Heat Index: 43°   Visibility: 10mi
Dew Point: 34°   Wind: 6mph
Humidity: 69%   Direction: 30°NNE
Pressure: 30.35"   Gusts: NA
Location:  29.3564°N, 100.7927°W
Report Text: KDLF 270958Z AUTO 03005KT 10SM CLR 06/01 A3035 RMK AO2 SLP273 T00630009 $
Loading
Personal Weather Stations






























Interactive Weather Map New forecast layout! Learn more

10-Day Weather Forecast

Advertisements
Track Severe Weather on mobile